createdAt,value
2022-09-16T00:00:46.443Z,78.63
2022-09-16T00:06:21.633Z,79.13
2022-09-16T00:11:24.496Z,79.60
2022-09-16T00:16:27.765Z,80.06
2022-09-16T00:21:30.953Z,79.77
2022-09-16T00:26:34.889Z,79.82
2022-09-16T00:31:37.729Z,80.33
2022-09-16T00:36:40.461Z,80.54
2022-09-16T00:41:43.236Z,80.53
2022-09-16T00:46:47.217Z,81.39
2022-09-16T00:51:51.564Z,80.88
2022-09-16T00:56:55.910Z,80.94
2022-09-16T01:02:00.348Z,81.20
2022-09-16T01:07:03.274Z,81.38
2022-09-16T01:12:06.145Z,81.36
2022-09-16T01:17:55.025Z,81.72
2022-09-16T01:23:37.186Z,81.52
2022-09-16T01:28:58.638Z,81.29
2022-09-16T01:34:43.657Z,81.29
2022-09-16T01:40:29.193Z,81.02
2022-09-16T01:46:05.984Z,81.30
2022-09-16T01:51:31.929Z,81.22
2022-09-16T01:56:57.928Z,80.84
2022-09-16T02:02:03.878Z,80.91
2022-09-16T02:07:08.002Z,80.50
2022-09-16T02:12:15.557Z,80.93
2022-09-16T02:17:21.136Z,80.66
2022-09-16T02:22:54.506Z,80.50
2022-09-16T02:27:57.643Z,80.23
2022-09-16T02:33:06.108Z,80.00
2022-09-16T02:38:14.721Z,79.86
2022-09-16T02:43:17.503Z,79.69
2022-09-16T02:48:42.724Z,79.22
2022-09-16T02:53:48.324Z,79.48
2022-09-16T02:58:51.105Z,79.47
2022-09-16T03:03:56.812Z,79.38
2022-09-16T03:08:59.813Z,79.39
2022-09-16T03:14:33.266Z,79.38
2022-09-16T03:20:21.440Z,79.50
2022-09-16T03:25:34.293Z,79.66
2022-09-16T03:30:43.605Z,79.54
2022-09-16T03:35:48.075Z,79.40
2022-09-16T03:40:50.759Z,79.82
2022-09-16T03:45:53.474Z,79.86
2022-09-16T03:50:56.175Z,80.11
2022-09-16T03:55:58.928Z,79.89
2022-09-16T04:01:01.691Z,80.41
2022-09-16T04:06:04.692Z,80.51
2022-09-16T04:11:08.081Z,80.96
2022-09-16T04:16:10.822Z,81.18
2022-09-16T04:21:13.643Z,81.58
2022-09-16T04:26:17.140Z,81.63
2022-09-16T04:31:20.115Z,81.61
2022-09-16T04:36:22.914Z,81.11
2022-09-16T04:41:26.415Z,81.50
2022-09-16T04:46:30.341Z,81.81
2022-09-16T04:51:33.167Z,81.88
2022-09-16T04:56:35.901Z,82.02
2022-09-16T05:01:38.979Z,82.22
2022-09-16T05:06:41.838Z,82.29
2022-09-16T05:11:44.485Z,82.48
2022-09-16T05:16:47.275Z,82.38
2022-09-16T05:21:50.654Z,82.20
2022-09-16T05:26:53.344Z,82.31
2022-09-16T05:31:56.058Z,82.16
2022-09-16T05:36:58.772Z,82.04
2022-09-16T05:42:01.578Z,81.75
2022-09-16T05:47:04.599Z,81.63
2022-09-16T05:52:07.676Z,81.00
2022-09-16T05:57:10.664Z,80.25
2022-09-16T06:02:13.495Z,80.16
2022-09-16T06:07:17.432Z,79.47
2022-09-16T06:12:20.150Z,79.02
2022-09-16T06:17:22.820Z,78.15
2022-09-16T06:22:25.471Z,77.56
2022-09-16T06:27:28.219Z,77.07
2022-09-16T06:32:31.853Z,76.72
2022-09-16T06:37:34.551Z,76.90
2022-09-16T06:42:37.524Z,75.78
2022-09-16T06:47:40.277Z,75.70
2022-09-16T06:52:43.930Z,75.13
2022-09-16T06:57:47.022Z,75.41
2022-09-16T07:02:49.724Z,75.41
2022-09-16T07:07:53.043Z,74.59
2022-09-16T07:12:55.703Z,74.39
2022-09-16T07:17:58.419Z,73.77
2022-09-16T07:23:01.092Z,73.10
2022-09-16T07:28:03.920Z,72.96
2022-09-16T07:33:06.581Z,71.79
2022-09-16T07:38:09.275Z,71.08
2022-09-16T07:43:12.317Z,70.41
2022-09-16T07:48:15.031Z,67.77
2022-09-16T07:53:17.800Z,66.51
2022-09-16T07:58:20.865Z,66.49
2022-09-16T08:03:23.632Z,66.17
2022-09-16T08:08:26.435Z,64.56
2022-09-16T08:13:31.060Z,63.12
2022-09-16T08:18:33.852Z,62.38
2022-09-16T08:23:37.057Z,61.53
2022-09-16T08:28:51.054Z,59.77
2022-09-16T08:34:00.807Z,60.08
2022-09-16T08:39:03.662Z,59.59
2022-09-16T08:44:30.402Z,58.16
2022-09-16T08:49:40.000Z,57.20
2022-09-16T08:54:49.518Z,58.73
2022-09-16T08:59:59.532Z,57.20
2022-09-16T09:05:03.637Z,56.93
2022-09-16T09:10:44.849Z,55.86
2022-09-16T09:16:12.272Z,57.00
2022-09-16T09:21:37.119Z,56.59
2022-09-16T09:26:51.312Z,55.68
2022-09-16T09:32:02.865Z,54.75
2022-09-16T09:37:47.113Z,54.20
2022-09-16T09:42:56.526Z,54.48
2022-09-16T09:48:34.213Z,54.14
2022-09-16T09:53:44.187Z,53.04
2022-09-16T09:59:29.479Z,53.81
2022-09-16T10:04:38.075Z,53.99
2022-09-16T10:10:02.816Z,53.38
2022-09-16T10:15:06.890Z,53.30
2022-09-16T10:20:30.899Z,52.69
2022-09-16T10:25:33.839Z,52.58
2022-09-16T10:30:47.069Z,51.95
2022-09-16T10:36:05.615Z,50.23
2022-09-16T10:41:15.064Z,50.52
2022-09-16T10:46:19.019Z,51.13
2022-09-16T10:51:30.929Z,50.87
2022-09-16T10:56:48.030Z,48.66
2022-09-16T11:02:14.851Z,46.28
2022-09-16T11:08:16.535Z,46.00
2022-09-16T11:13:42.807Z,46.69
2022-09-16T11:19:33.663Z,46.77
2022-09-16T11:24:55.028Z,47.50
2022-09-16T11:30:19.839Z,48.05
2022-09-16T11:36:01.165Z,48.45
2022-09-16T11:41:42.540Z,45.53
2022-09-16T11:47:17.053Z,36.39
2022-09-16T11:52:34.752Z,33.02
2022-09-16T11:57:41.003Z,30.79
2022-09-16T12:03:19.091Z,29.31
2022-09-16T12:09:09.124Z,27.65
2022-09-16T12:14:19.967Z,24.25
2022-09-16T12:19:28.583Z,23.78
2022-09-16T12:24:39.820Z,23.44
2022-09-16T12:29:52.256Z,22.90
2022-09-16T12:34:59.467Z,24.20
2022-09-16T12:40:02.790Z,26.39
2022-09-16T12:45:51.276Z,28.26
2022-09-16T12:51:15.880Z,27.89
2022-09-16T12:56:39.787Z,25.52
2022-09-16T13:01:51.209Z,23.17
2022-09-16T13:06:56.032Z,20.99
2022-09-16T13:17:37.479Z,25.29
2022-09-16T13:22:40.165Z,22.12
2022-09-16T13:27:58.421Z,21.49
2022-09-16T13:33:08.861Z,23.01
2022-09-16T13:38:14.235Z,27.05
2022-09-16T13:43:16.972Z,29.71
2022-09-16T13:48:22.719Z,30.92
2022-09-16T13:53:37.555Z,32.42
2022-09-16T13:59:19.194Z,31.87
2022-09-16T14:04:49.920Z,26.30
2022-09-16T14:09:58.726Z,22.87
2022-09-16T14:15:01.424Z,24.39
2022-09-16T14:20:05.040Z,25.71
2022-09-16T14:25:30.222Z,25.74
2022-09-16T14:30:33.324Z,25.08
2022-09-16T14:35:36.274Z,22.61
2022-09-16T14:40:39.264Z,21.98
2022-09-16T14:45:47.212Z,21.06
2022-09-16T14:50:49.853Z,20.18
2022-09-16T15:01:10.589Z,22.04
2022-09-16T15:06:22.635Z,24.71
2022-09-16T15:11:47.468Z,27.17
2022-09-16T15:17:02.437Z,29.44
2022-09-16T15:22:07.601Z,32.37
2022-09-16T15:27:10.386Z,34.29
2022-09-16T15:32:16.430Z,34.75
2022-09-16T15:37:33.406Z,36.30
2022-09-16T15:42:36.164Z,37.16
2022-09-16T15:48:00.576Z,38.16
2022-09-16T15:53:19.090Z,39.27
2022-09-16T15:58:43.292Z,40.33
2022-09-16T16:03:51.024Z,42.32
2022-09-16T16:08:55.099Z,43.38
2022-09-16T16:14:01.943Z,44.62
2022-09-16T16:19:06.179Z,45.00
2022-09-16T16:24:08.875Z,45.55
2022-09-16T16:29:11.527Z,46.04
2022-09-16T16:34:14.277Z,46.18
2022-09-16T16:39:16.944Z,46.50
2022-09-16T16:44:22.789Z,46.77
2022-09-16T16:49:25.741Z,46.66
2022-09-16T16:54:28.756Z,47.04
2022-09-16T16:59:31.491Z,47.27
2022-09-16T17:04:34.406Z,47.91
2022-09-16T17:09:37.276Z,48.75
2022-09-16T17:14:42.141Z,49.19
2022-09-16T17:19:44.906Z,50.29
2022-09-16T17:24:47.605Z,50.43
2022-09-16T17:29:50.318Z,50.94
2022-09-16T17:34:53.125Z,51.70
2022-09-16T17:39:55.886Z,52.47
2022-09-16T17:45:00.780Z,53.25
2022-09-16T17:50:05.433Z,53.84
2022-09-16T17:55:08.630Z,54.04
2022-09-16T18:00:12.542Z,54.73
2022-09-16T18:05:15.481Z,55.13
2022-09-16T18:10:18.318Z,55.64
2022-09-16T18:15:20.982Z,56.01
2022-09-16T18:20:25.346Z,55.85
2022-09-16T18:25:28.548Z,56.86
2022-09-16T18:30:31.322Z,57.62
2022-09-16T18:35:37.106Z,59.00
2022-09-16T18:40:40.014Z,57.94
2022-09-16T18:45:42.771Z,58.79
2022-09-16T18:50:45.505Z,58.56
2022-09-16T18:55:48.480Z,58.90
2022-09-16T19:00:51.244Z,58.93
2022-09-16T19:05:55.198Z,59.58
2022-09-16T19:11:03.711Z,60.15
2022-09-16T19:16:07.492Z,59.93
2022-09-16T19:21:15.629Z,59.82
2022-09-16T19:26:18.445Z,60.09
2022-09-16T19:31:21.217Z,60.54
2022-09-16T19:36:28.895Z,60.84
2022-09-16T19:41:34.330Z,61.42
2022-09-16T19:46:38.018Z,61.10
2022-09-16T19:51:40.639Z,61.92
2022-09-16T19:56:46.981Z,61.88
2022-09-16T20:01:53.116Z,62.31
2022-09-16T20:06:56.538Z,62.17
2022-09-16T20:11:59.248Z,62.87
2022-09-16T20:17:02.045Z,63.41
2022-09-16T20:22:04.966Z,63.83
2022-09-16T20:27:07.739Z,63.99
2022-09-16T20:32:10.511Z,64.45
2022-09-16T20:37:13.237Z,65.56
2022-09-16T20:42:16.911Z,65.47
2022-09-16T20:47:19.594Z,65.99
2022-09-16T20:52:22.282Z,66.15
2022-09-16T20:57:24.987Z,65.93
2022-09-16T21:02:27.906Z,66.46
2022-09-16T21:07:31.237Z,66.70
2022-09-16T21:12:36.486Z,66.77
2022-09-16T21:17:39.265Z,66.41
2022-09-16T21:22:44.599Z,67.06
2022-09-16T21:27:47.311Z,67.41
2022-09-16T21:32:50.230Z,67.52
2022-09-16T21:37:52.918Z,67.66
2022-09-16T21:42:55.612Z,67.75
2022-09-16T21:47:58.372Z,67.98
2022-09-16T21:53:01.077Z,68.39
2022-09-16T21:58:03.998Z,68.26
2022-09-16T22:03:06.830Z,69.20
2022-09-16T22:08:09.568Z,68.92
2022-09-16T22:13:12.213Z,69.84
2022-09-16T22:18:14.906Z,69.60
2022-09-16T22:23:17.733Z,69.57
2022-09-16T22:28:20.466Z,69.71
2022-09-16T22:33:23.164Z,69.69
2022-09-16T22:38:25.820Z,69.81
2022-09-16T22:43:28.609Z,69.72
2022-09-16T22:49:17.673Z,70.37
2022-09-16T22:54:23.129Z,70.46
2022-09-16T22:59:25.890Z,70.21
2022-09-16T23:28:43.015Z,71.82
2022-09-16T23:51:28.318Z,71.96
